createdAt,value
2022-11-24T00:02:38.840Z,11.50
2022-11-24T00:07:41.797Z,11.60
2022-11-24T00:12:46.029Z,11.70
2022-11-24T00:17:48.934Z,11.60
2022-11-24T00:22:51.908Z,11.70
2022-11-24T00:27:56.198Z,11.70
2022-11-24T00:32:59.108Z,11.80
2022-11-24T00:38:02.025Z,11.70
2022-11-24T00:43:06.284Z,11.70
2022-11-24T00:48:09.468Z,11.60
2022-11-24T00:53:12.429Z,11.60
2022-11-24T00:58:16.880Z,11.60
2022-11-24T01:03:21.409Z,11.60
2022-11-24T01:08:24.326Z,11.70
2022-11-24T01:13:28.595Z,11.70
2022-11-24T01:18:31.597Z,11.80
2022-11-24T01:23:34.585Z,11.70
2022-11-24T01:28:44.865Z,11.70
2022-11-24T01:33:50.012Z,11.70
2022-11-24T01:38:53.113Z,11.60
2022-11-24T01:43:58.053Z,11.70
2022-11-24T01:49:10.227Z,11.80
2022-11-24T01:54:17.394Z,11.80
2022-11-24T01:59:22.897Z,11.70
2022-11-24T02:04:34.466Z,11.70
2022-11-24T02:09:43.971Z,11.70
2022-11-24T02:14:48.257Z,11.70
2022-11-24T02:19:56.915Z,11.60
2022-11-24T02:25:04.879Z,11.50
2022-11-24T02:30:10.026Z,11.60
2022-11-24T02:35:14.025Z,11.50
2022-11-24T02:40:19.533Z,11.50
2022-11-24T02:45:24.610Z,11.40
2022-11-24T02:50:27.739Z,11.40
2022-11-24T02:55:30.707Z,11.40
2022-11-24T03:00:35.019Z,11.40
2022-11-24T03:05:37.966Z,11.30
2022-11-24T03:10:40.920Z,11.40
2022-11-24T03:15:45.282Z,11.40
2022-11-24T03:20:48.228Z,11.40
2022-11-24T03:25:51.131Z,11.40
2022-11-24T03:30:55.437Z,11.40
2022-11-24T03:35:58.419Z,11.50
2022-11-24T03:41:01.615Z,11.50
2022-11-24T03:46:05.932Z,11.50
2022-11-24T03:51:08.958Z,11.60
2022-11-24T03:56:16.360Z,11.50
2022-11-24T04:01:20.722Z,11.60
2022-11-24T04:06:23.706Z,11.60
2022-11-24T04:11:43.962Z,11.70
2022-11-24T04:16:48.234Z,11.60
2022-11-24T04:21:51.209Z,11.60
2022-11-24T04:26:54.452Z,11.60
2022-11-24T04:31:58.741Z,11.50
2022-11-24T04:37:01.678Z,11.60
2022-11-24T04:42:04.789Z,11.70
2022-11-24T04:47:13.454Z,11.60
2022-11-24T04:52:16.447Z,11.60
2022-11-24T04:57:21.353Z,11.50
2022-11-24T05:02:25.828Z,11.50
2022-11-24T05:07:29.143Z,11.50
2022-11-24T05:12:32.477Z,11.40
2022-11-24T05:17:38.604Z,11.50
2022-11-24T05:22:41.642Z,11.50
2022-11-24T05:27:44.510Z,11.50
2022-11-24T05:32:48.732Z,11.60
2022-11-24T05:37:51.738Z,11.50
2022-11-24T05:42:54.789Z,11.50
2022-11-24T05:48:06.117Z,11.30
2022-11-24T05:53:10.911Z,11.30
2022-11-24T05:58:13.782Z,11.40
2022-11-24T06:03:18.091Z,11.30
2022-11-24T06:08:21.041Z,11.30
2022-11-24T06:13:23.971Z,11.10
2022-11-24T06:18:28.524Z,11.10
2022-11-24T06:23:31.459Z,11.10
2022-11-24T06:28:34.482Z,11.00
2022-11-24T06:33:39.481Z,10.70
2022-11-24T06:38:44.436Z,10.80
2022-11-24T06:43:47.949Z,10.90
2022-11-24T06:48:53.658Z,10.90
2022-11-24T06:53:56.547Z,10.90
2022-11-24T06:58:59.466Z,10.80
2022-11-24T07:04:04.425Z,10.80
2022-11-24T07:09:07.529Z,10.80
2022-11-24T07:14:11.225Z,10.80
2022-11-24T07:19:18.947Z,10.70
2022-11-24T07:24:24.543Z,10.80
2022-11-24T07:29:27.455Z,10.80
2022-11-24T07:34:31.804Z,10.90
2022-11-24T07:39:34.838Z,10.90
2022-11-24T07:44:38.073Z,11.00
2022-11-24T07:49:42.316Z,11.20
2022-11-24T07:54:45.172Z,11.10
2022-11-24T07:59:48.056Z,11.10
2022-11-24T08:04:54.401Z,11.10
2022-11-24T08:09:57.378Z,11.10
2022-11-24T08:15:00.254Z,11.00
2022-11-24T08:20:05.067Z,11.00
2022-11-24T08:25:09.055Z,11.00
2022-11-24T08:30:13.395Z,10.90
2022-11-24T08:35:17.913Z,10.80
2022-11-24T08:40:22.084Z,10.80
2022-11-24T08:45:25.804Z,10.80
2022-11-24T08:50:30.097Z,10.90
2022-11-24T08:55:33.003Z,10.90
2022-11-24T09:00:35.871Z,11.00
2022-11-24T09:05:55.460Z,10.90
2022-11-24T09:11:01.948Z,10.90
2022-11-24T09:16:05.598Z,11.00
2022-11-24T09:21:11.066Z,10.90
2022-11-24T09:26:16.035Z,10.90
2022-11-24T09:31:19.619Z,10.90
2022-11-24T09:36:25.096Z,11.00
2022-11-24T09:41:40.822Z,11.20
2022-11-24T09:46:53.811Z,11.30
2022-11-24T09:51:59.233Z,11.40
2022-11-24T09:57:04.938Z,11.40
2022-11-24T10:02:13.214Z,11.40
2022-11-24T10:07:27.434Z,11.50
2022-11-24T10:12:48.702Z,11.50
2022-11-24T10:18:32.741Z,11.50
2022-11-24T10:23:54.617Z,11.60
2022-11-24T10:28:57.868Z,11.70
2022-11-24T10:34:04.798Z,11.80
2022-11-24T10:39:16.829Z,11.80
2022-11-24T10:44:19.850Z,11.90
2022-11-24T10:49:28.783Z,11.90
2022-11-24T10:54:35.558Z,12.00
2022-11-24T10:59:40.255Z,12.10
2022-11-24T11:04:43.147Z,12.20
2022-11-24T11:09:48.211Z,12.20
2022-11-24T11:14:51.624Z,12.20
2022-11-24T11:20:02.026Z,12.20
2022-11-24T11:25:20.347Z,12.20
2022-11-24T11:35:50.142Z,12.30
2022-11-24T11:40:54.711Z,12.30
2022-11-24T11:46:03.221Z,12.40
2022-11-24T11:51:25.008Z,12.30
2022-11-24T11:56:32.303Z,12.40
2022-11-24T12:01:47.154Z,12.50
2022-11-24T12:07:14.224Z,12.60
2022-11-24T12:12:39.218Z,12.70
2022-11-24T12:17:47.525Z,12.80
2022-11-24T12:23:00.564Z,12.80
2022-11-24T12:28:17.793Z,12.90
2022-11-24T12:33:35.530Z,12.90
2022-11-24T12:38:49.131Z,12.90
2022-11-24T12:43:54.393Z,12.80
2022-11-24T12:49:05.436Z,13.00
2022-11-24T12:54:13.750Z,12.90
2022-11-24T12:59:28.904Z,13.00
2022-11-24T13:04:38.883Z,13.20
2022-11-24T13:10:34.632Z,13.40
2022-11-24T13:22:05.616Z,13.00
2022-11-24T13:27:29.220Z,13.20
2022-11-24T13:33:21.687Z,13.10
2022-11-24T13:38:52.551Z,13.10
2022-11-24T13:44:24.703Z,13.10
2022-11-24T13:49:39.563Z,13.20
2022-11-24T13:54:42.765Z,13.10
2022-11-24T13:59:45.864Z,13.00
2022-11-24T14:04:50.125Z,13.00
2022-11-24T14:09:54.149Z,13.10
2022-11-24T14:15:23.556Z,13.10
2022-11-24T14:20:29.228Z,13.10
2022-11-24T14:25:35.399Z,13.10
2022-11-24T14:30:38.306Z,13.20
2022-11-24T14:35:46.176Z,13.20
2022-11-24T14:40:51.390Z,13.10
2022-11-24T14:45:56.649Z,13.10
2022-11-24T14:51:09.639Z,13.10
2022-11-24T14:56:24.553Z,13.10
2022-11-24T15:01:34.024Z,12.90
2022-11-24T15:06:38.439Z,12.80
2022-11-24T15:11:41.355Z,12.90
2022-11-24T15:16:44.322Z,12.80
2022-11-24T15:21:48.638Z,12.70
2022-11-24T15:26:51.525Z,12.60
2022-11-24T15:31:54.547Z,12.60
2022-11-24T15:36:58.817Z,12.70
2022-11-24T15:42:01.923Z,12.50
2022-11-24T15:47:04.913Z,12.40
2022-11-24T15:52:09.322Z,12.30
2022-11-24T15:57:12.261Z,12.10
2022-11-24T16:02:15.316Z,12.20
2022-11-24T16:07:19.828Z,12.10
2022-11-24T16:12:24.773Z,12.00
2022-11-24T16:17:27.786Z,11.80
2022-11-24T16:22:32.052Z,11.70
2022-11-24T16:27:34.990Z,11.80
2022-11-24T16:32:39.977Z,11.80
2022-11-24T16:37:44.380Z,11.70
2022-11-24T16:42:47.248Z,11.70
2022-11-24T16:47:50.165Z,11.60
2022-11-24T16:52:54.487Z,11.60
2022-11-24T16:57:57.446Z,11.70
2022-11-24T17:03:00.378Z,11.80
2022-11-24T17:08:04.705Z,11.70
2022-11-24T17:13:08.432Z,11.70
2022-11-24T17:18:27.070Z,11.70
2022-11-24T17:23:31.478Z,11.70
2022-11-24T17:28:35.142Z,11.70
2022-11-24T17:33:38.036Z,11.70
2022-11-24T17:38:42.676Z,11.70
2022-11-24T17:43:49.039Z,11.80
2022-11-24T17:48:58.417Z,11.80
2022-11-24T17:54:18.670Z,11.80
2022-11-24T17:59:25.644Z,11.80
2022-11-24T18:04:28.562Z,11.80
2022-11-24T18:09:33.152Z,11.70
2022-11-24T18:14:36.500Z,11.80
2022-11-24T18:19:43.829Z,11.80
2022-11-24T18:24:50.123Z,11.80
2022-11-24T18:29:56.320Z,11.80
2022-11-24T18:34:59.318Z,11.80
2022-11-24T18:40:04.051Z,11.90
2022-11-24T18:45:09.596Z,11.90
2022-11-24T18:50:13.605Z,11.80
2022-11-24T18:55:18.018Z,12.00
2022-11-24T19:00:21.336Z,11.90
2022-11-24T19:05:24.275Z,11.90
2022-11-24T19:10:38.880Z,11.90
2022-11-24T19:15:41.787Z,11.80
2022-11-24T19:20:44.777Z,11.90
2022-11-24T19:25:57.104Z,11.90
2022-11-24T19:31:01.803Z,11.80
2022-11-24T19:36:06.279Z,12.00
2022-11-24T19:41:12.106Z,11.90
2022-11-24T19:46:17.260Z,11.90
2022-11-24T19:51:22.323Z,11.90
2022-11-24T19:56:28.492Z,11.90
2022-11-24T20:01:42.506Z,11.80
2022-11-24T20:06:47.759Z,11.90
2022-11-24T20:11:52.201Z,11.70
2022-11-24T20:16:55.290Z,11.80
2022-11-24T20:21:58.285Z,11.70
2022-11-24T20:27:03.262Z,11.80
2022-11-24T20:32:06.346Z,11.80
2022-11-24T20:37:13.317Z,11.80
2022-11-24T20:42:17.579Z,11.90
2022-11-24T20:47:20.532Z,11.80
2022-11-24T20:52:32.789Z,11.90
2022-11-24T20:57:37.119Z,11.80
2022-11-24T21:02:47.443Z,11.80
2022-11-24T21:07:50.486Z,11.80
2022-11-24T21:13:03.957Z,11.70
2022-11-24T21:18:07.935Z,11.70
2022-11-24T21:23:11.069Z,11.70
2022-11-24T21:28:15.333Z,11.60
2022-11-24T21:33:19.713Z,11.40
2022-11-24T21:38:22.689Z,11.30
2022-11-24T21:43:28.601Z,11.30
2022-11-24T21:48:32.285Z,11.30
2022-11-24T21:53:37.023Z,11.30
2022-11-24T21:58:45.962Z,11.20
2022-11-24T22:03:49.086Z,11.20
2022-11-24T22:08:52.096Z,11.10
2022-11-24T22:13:56.508Z,11.20
2022-11-24T22:19:01.046Z,11.10
2022-11-24T22:24:04.147Z,11.10
2022-11-24T22:29:08.719Z,11.00
2022-11-24T22:34:11.618Z,10.90
2022-11-24T22:39:14.787Z,11.00
2022-11-24T22:44:19.018Z,10.90
2022-11-24T22:49:23.527Z,10.70
2022-11-24T22:54:26.421Z,10.70
2022-11-24T22:59:30.639Z,10.80
2022-11-24T23:04:33.927Z,10.80
2022-11-24T23:09:37.057Z,10.90
2022-11-24T23:14:41.287Z,11.00
2022-11-24T23:19:44.147Z,10.60
2022-11-24T23:24:47.031Z,10.50
2022-11-24T23:29:51.682Z,10.30
2022-11-24T23:34:54.559Z,10.20
2022-11-24T23:39:57.413Z,10.20
2022-11-24T23:45:01.670Z,9.80
2022-11-24T23:50:08.266Z,9.60
2022-11-24T23:55:11.162Z,9.50
